Royalton, Illinois
Current Conditions -  °F | °C
As of 6:52 AM on Saturday 25 Oct 2014 (Local Time) from KMDH Reporting Station
Overcast Overcast  
Wind Chill: 59°   Ceiling: 4100
Heat Index: 59°   Visibility: 10mi
Dew Point: 56°   Wind: 5mph
Humidity: 90%   Direction: 250°WSW
Pressure: 30.03"   Gusts: NA
Location:  37.88°N, 89.11°W
Report Text: KMDH 251152Z AUTO 25004KT 10SM OVC041 15/13 A3003 RMK AO2 SLP166 T01500133 10150 20111 53008
Loading
Personal Weather Stations






























Interactive Weather Map
Tropical Storm Tracking
New forecast layout! Learn more

10-Day Weather Forecast

Advertisements
Track Severe Weather on mobile